sensor_id;sensor_type;location;lat;lon;timestamp;P1;durP1;ratioP1;P2;durP2;ratioP2
7661;SDS011;30314;48.184;11.510;2022-08-05T04:07:28;6.50;;;4.97;;
7661;SDS011;30314;48.184;11.510;2022-08-05T04:09:58;7.43;;;5.37;;
7661;SDS011;30314;48.184;11.510;2022-08-05T04:12:28;5.13;;;4.63;;
7661;SDS011;30314;48.184;11.510;2022-08-05T04:14:56;7.13;;;5.00;;
7661;SDS011;30314;48.184;11.510;2022-08-05T04:17:26;7.63;;;5.00;;
7661;SDS011;30314;48.184;11.510;2022-08-05T04:20:17;7.97;;;5.60;;
7661;SDS011;30314;48.184;11.510;2022-08-05T04:22:49;12.83;;;6.57;;
7661;SDS011;30314;48.184;11.510;2022-08-05T04:25:17;8.80;;;5.40;;
7661;SDS011;30314;48.184;11.510;2022-08-05T04:28:11;6.40;;;4.43;;
7661;SDS011;30314;48.184;11.510;2022-08-05T04:30:40;5.10;;;3.40;;
7661;SDS011;30314;48.184;11.510;2022-08-05T04:33:08;5.50;;;4.70;;
7661;SDS011;30314;48.184;11.510;2022-08-05T04:35:36;8.10;;;4.70;;
7661;SDS011;30314;48.184;11.510;2022-08-05T04:38:25;4.20;;;3.80;;
7661;SDS011;30314;48.184;11.510;2022-08-05T04:41:05;6.83;;;4.27;;
7661;SDS011;30314;48.184;11.510;2022-08-05T04:43:35;4.90;;;4.20;;
7661;SDS011;30314;48.184;11.510;2022-08-05T04:46:12;8.47;;;4.67;;
7661;SDS011;30314;48.184;11.510;2022-08-05T04:48:53;5.50;;;4.80;;
7661;SDS011;30314;48.184;11.510;2022-08-05T04:51:24;6.20;;;4.00;;
7661;SDS011;30314;48.184;11.510;2022-08-05T04:53:58;5.70;;;4.53;;
7661;SDS011;30314;48.184;11.510;2022-08-05T04:56:27;5.77;;;4.80;;
7661;SDS011;30314;48.184;11.510;2022-08-05T04:59:02;6.57;;;4.50;;
7661;SDS011;30314;48.184;11.510;2022-08-05T05:01:48;10.53;;;4.83;;
7661;SDS011;30314;48.184;11.510;2022-08-05T05:04:36;7.13;;;4.13;;
7661;SDS011;30314;48.184;11.510;2022-08-05T05:07:09;8.07;;;5.10;;
7661;SDS011;30314;48.184;11.510;2022-08-05T05:12:35;6.70;;;4.00;;
7661;SDS011;30314;48.184;11.510;2022-08-05T05:15:04;6.63;;;4.40;;
7661;SDS011;30314;48.184;11.510;2022-08-05T05:17:36;5.93;;;3.87;;
7661;SDS011;30314;48.184;11.510;2022-08-05T05:20:22;5.77;;;3.97;;
7661;SDS011;30314;48.184;11.510;2022-08-05T05:22:54;6.60;;;3.97;;
7661;SDS011;30314;48.184;11.510;2022-08-05T05:25:24;4.50;;;3.27;;
7661;SDS011;30314;48.184;11.510;2022-08-05T05:28:06;4.63;;;3.40;;
7661;SDS011;30314;48.184;11.510;2022-08-05T05:35:00;4.80;;;3.60;;
7661;SDS011;30314;48.184;11.510;2022-08-05T05:37:28;7.03;;;3.57;;
7661;SDS011;30314;48.184;11.510;2022-08-05T05:40:16;5.13;;;3.00;;
7661;SDS011;30314;48.184;11.510;2022-08-05T05:42:46;6.87;;;4.70;;
7661;SDS011;30314;48.184;11.510;2022-08-05T05:48:41;5.83;;;3.50;;
7661;SDS011;30314;48.184;11.510;2022-08-05T05:51:10;5.30;;;3.23;;
7661;SDS011;30314;48.184;11.510;2022-08-05T05:53:41;4.50;;;3.40;;
7661;SDS011;30314;48.184;11.510;2022-08-05T05:56:25;4.70;;;3.37;;
7661;SDS011;30314;48.184;11.510;2022-08-05T05:59:00;4.33;;;2.77;;
7661;SDS011;30314;48.184;11.510;2022-08-05T06:01:31;12.60;;;3.07;;
7661;SDS011;30314;48.184;11.510;2022-08-05T06:04:04;3.00;;;2.70;;
7661;SDS011;30314;48.184;11.510;2022-08-05T06:06:33;5.20;;;3.10;;
7661;SDS011;30314;48.184;11.510;2022-08-05T06:09:01;3.73;;;2.90;;
7661;SDS011;30314;48.184;11.510;2022-08-05T06:11:30;5.33;;;3.00;;
7661;SDS011;30314;48.184;11.510;2022-08-05T06:14:00;3.90;;;2.33;;
7661;SDS011;30314;48.184;11.510;2022-08-05T06:16:28;4.07;;;2.97;;
7661;SDS011;30314;48.184;11.510;2022-08-05T06:19:03;4.93;;;3.13;;
7661;SDS011;30314;48.184;11.510;2022-08-05T06:21:33;4.63;;;2.90;;
7661;SDS011;30314;48.184;11.510;2022-08-05T06:24:08;5.50;;;3.27;;
7661;SDS011;30314;48.184;11.510;2022-08-05T06:26:37;5.90;;;2.60;;
7661;SDS011;30314;48.184;11.510;2022-08-05T06:29:19;3.40;;;2.90;;
7661;SDS011;30314;48.184;11.510;2022-08-05T06:32:07;5.47;;;3.70;;
7661;SDS011;30314;48.184;11.510;2022-08-05T06:34:54;3.33;;;2.83;;
7661;SDS011;30314;48.184;11.510;2022-08-05T06:37:24;5.37;;;3.17;;
7661;SDS011;30314;48.184;11.510;2022-08-05T06:40:12;5.93;;;2.60;;
7661;SDS011;30314;48.184;11.510;2022-08-05T06:42:46;4.53;;;2.93;;
7661;SDS011;30314;48.184;11.510;2022-08-05T06:45:19;4.43;;;3.23;;
7661;SDS011;30314;48.184;11.510;2022-08-05T06:48:07;4.13;;;3.23;;
7661;SDS011;30314;48.184;11.510;2022-08-05T06:50:55;4.70;;;3.60;;
7661;SDS011;30314;48.184;11.510;2022-08-05T06:53:25;5.23;;;2.77;;
7661;SDS011;30314;48.184;11.510;2022-08-05T06:55:54;13.70;;;3.20;;
7661;SDS011;30314;48.184;11.510;2022-08-05T06:58:23;6.13;;;3.13;;
7661;SDS011;30314;48.184;11.510;2022-08-05T07:01:05;4.67;;;2.80;;
7661;SDS011;30314;48.184;11.510;2022-08-05T07:03:38;4.10;;;2.77;;
7661;SDS011;30314;48.184;11.510;2022-08-05T07:06:07;6.33;;;2.90;;
7661;SDS011;30314;48.184;11.510;2022-08-05T07:08:40;5.70;;;3.50;;
7661;SDS011;30314;48.184;11.510;2022-08-05T07:11:17;6.73;;;3.67;;
7661;SDS011;30314;48.184;11.510;2022-08-05T07:14:04;5.13;;;3.50;;
7661;SDS011;30314;48.184;11.510;2022-08-05T07:16:57;7.43;;;3.50;;
7661;SDS011;30314;48.184;11.510;2022-08-05T07:19:50;4.47;;;3.20;;
7661;SDS011;30314;48.184;11.510;2022-08-05T07:22:39;9.57;;;3.27;;
7661;SDS011;30314;48.184;11.510;2022-08-05T07:25:07;6.23;;;3.27;;
7661;SDS011;30314;48.184;11.510;2022-08-05T07:27:56;5.63;;;3.03;;
7661;SDS011;30314;48.184;11.510;2022-08-05T07:30:36;7.27;;;2.90;;
7661;SDS011;30314;48.184;11.510;2022-08-05T07:33:07;6.57;;;3.30;;
7661;SDS011;30314;48.184;11.510;2022-08-05T07:35:48;9.93;;;3.73;;
7661;SDS011;30314;48.184;11.510;2022-08-05T07:38:36;4.90;;;2.90;;
7661;SDS011;30314;48.184;11.510;2022-08-05T07:41:10;6.20;;;3.37;;
7661;SDS011;30314;48.184;11.510;2022-08-05T07:44:02;4.00;;;2.77;;
7661;SDS011;30314;48.184;11.510;2022-08-05T07:46:45;9.13;;;3.97;;
7661;SDS011;30314;48.184;11.510;2022-08-05T07:49:15;8.50;;;4.23;;
7661;SDS011;30314;48.184;11.510;2022-08-05T07:51:46;4.27;;;3.23;;
7661;SDS011;30314;48.184;11.510;2022-08-05T07:54:20;7.50;;;2.97;;
7661;SDS011;30314;48.184;11.510;2022-08-05T07:56:58;4.83;;;3.37;;
7661;SDS011;30314;48.184;11.510;2022-08-05T07:59:46;3.20;;;2.53;;
7661;SDS011;30314;48.184;11.510;2022-08-05T08:02:15;9.77;;;3.70;;
7661;SDS011;30314;48.184;11.510;2022-08-05T08:04:45;3.93;;;3.20;;
7661;SDS011;30314;48.184;11.510;2022-08-05T08:07:15;5.00;;;3.20;;
7661;SDS011;30314;48.184;11.510;2022-08-05T08:09:47;6.30;;;3.60;;
7661;SDS011;30314;48.184;11.510;2022-08-05T08:12:18;6.10;;;2.87;;
7661;SDS011;30314;48.184;11.510;2022-08-05T08:15:05;6.20;;;2.83;;
7661;SDS011;30314;48.184;11.510;2022-08-05T08:17:40;6.47;;;4.00;;
7661;SDS011;30314;48.184;11.510;2022-08-05T08:20:19;5.73;;;3.33;;
7661;SDS011;30314;48.184;11.510;2022-08-05T08:23:10;5.47;;;3.50;;
7661;SDS011;30314;48.184;11.510;2022-08-05T08:25:58;9.70;;;4.40;;
7661;SDS011;30314;48.184;11.510;2022-08-05T08:28:30;4.50;;;3.30;;
7661;SDS011;30314;48.184;11.510;2022-08-05T08:31:17;8.03;;;4.17;;
7661;SDS011;30314;48.184;11.510;2022-08-05T08:33:47;6.10;;;4.00;;
7661;SDS011;30314;48.184;11.510;2022-08-05T08:36:20;9.40;;;3.87;;
7661;SDS011;30314;48.184;11.510;2022-08-05T08:39:07;7.77;;;4.70;;
7661;SDS011;30314;48.184;11.510;2022-08-05T08:41:41;7.73;;;3.90;;
7661;SDS011;30314;48.184;11.510;2022-08-05T08:44:27;7.23;;;4.40;;
7661;SDS011;30314;48.184;11.510;2022-08-05T08:47:15;9.03;;;3.70;;
7661;SDS011;30314;48.184;11.510;2022-08-05T08:50:08;13.33;;;4.27;;
7661;SDS011;30314;48.184;11.510;2022-08-05T08:53:01;9.23;;;4.00;;
7661;SDS011;30314;48.184;11.510;2022-08-05T08:55:37;6.47;;;4.17;;
7661;SDS011;30314;48.184;11.510;2022-08-05T08:58:25;7.33;;;4.50;;
7661;SDS011;30314;48.184;11.510;2022-08-05T09:01:03;4.50;;;3.37;;
7661;SDS011;30314;48.184;11.510;2022-08-05T09:03:36;7.33;;;3.43;;
7661;SDS011;30314;48.184;11.510;2022-08-05T09:06:10;7.27;;;3.07;;
7661;SDS011;30314;48.184;11.510;2022-08-05T09:08:46;13.00;;;3.70;;
7661;SDS011;30314;48.184;11.510;2022-08-05T09:11:14;7.67;;;3.23;;
7661;SDS011;30314;48.184;11.510;2022-08-05T09:14:02;4.53;;;3.70;;
7661;SDS011;30314;48.184;11.510;2022-08-05T09:16:50;4.90;;;3.63;;
7661;SDS011;30314;48.184;11.510;2022-08-05T09:19:17;4.90;;;3.43;;
7661;SDS011;30314;48.184;11.510;2022-08-05T09:21:53;16.33;;;3.40;;
7661;SDS011;30314;48.184;11.510;2022-08-05T09:24:42;8.07;;;3.43;;
7661;SDS011;30314;48.184;11.510;2022-08-05T09:27:25;7.80;;;3.50;;
7661;SDS011;30314;48.184;11.510;2022-08-05T09:30:17;8.57;;;3.50;;
